Time;durP1;ratioP1;P1;durP2;ratioP2;P2;SDS_P1;SDS_P2;PMS_P1;PMS_P2;Temp;Humidity;BMP_temperature;BMP_pressure;BME280_temperature;BME280_humidity;BME280_pressure;Samples;Min_cycle;Max_cycle;Signal;HPM_P1;HPM_P2
2021/01/17 00:00:04;;;;;;;25.10;18.17;;;-1.80;99.90;;;;;;5079442;28;20182;-74
2021/01/17 00:02:30;;;;;;;24.33;17.27;;;-1.80;99.80;;;;;;5082934;28;20181;-72
2021/01/17 00:04:55;;;;;;;23.40;17.37;;;-1.80;99.80;;;;;;5083606;28;20677;-72
2021/01/17 00:07:21;;;;;;;23.13;16.83;;;-1.90;99.90;;;;;;5081428;28;20293;-72
2021/01/17 00:09:46;;;;;;;25.00;18.20;;;-1.90;99.90;;;;;;5080683;28;20186;-74
2021/01/17 00:12:12;;;;;;;28.60;19.60;;;-1.90;99.90;;;;;;5074577;28;20191;-73
2021/01/17 00:14:38;;;;;;;27.53;19.27;;;-1.90;99.90;;;;;;5081089;28;20197;-72
2021/01/17 00:17:03;;;;;;;24.97;18.10;;;-1.90;99.90;;;;;;5080487;28;20206;-73
2021/01/17 00:19:30;;;;;;;27.73;18.63;;;-1.80;99.90;;;;;;5074578;28;20555;-74
2021/01/17 00:21:56;;;;;;;27.37;19.63;;;-1.80;99.90;;;;;;5087704;28;20266;-74
2021/01/17 00:24:21;;;;;;;28.47;18.30;;;-1.80;99.90;;;;;;5082194;28;20204;-74
2021/01/17 00:26:47;;;;;;;27.17;19.30;;;-1.90;99.90;;;;;;5079069;28;20233;-74
2021/01/17 00:29:12;;;;;;;26.27;18.97;;;-1.90;99.90;;;;;;5083965;28;20265;-74
2021/01/17 00:31:38;;;;;;;25.73;18.97;;;-1.90;99.90;;;;;;5092159;28;20189;-74
2021/01/17 00:34:04;;;;;;;26.37;19.50;;;-1.90;99.90;;;;;;5093816;28;20192;-75
2021/01/17 00:36:37;;;;;;;27.23;19.07;;;-1.90;99.90;;;;;;5080757;28;20288;-74
2021/01/17 00:39:04;;;;;;;25.60;19.30;;;-1.90;99.90;;;;;;5079906;28;20283;-75
2021/01/17 00:41:31;;;;;;;29.83;20.63;;;-1.90;99.90;;;;;;5084578;28;20206;-73
2021/01/17 00:43:57;;;;;;;27.80;20.53;;;-1.90;99.90;;;;;;5084445;28;20188;-73
2021/01/17 00:46:23;;;;;;;28.53;20.60;;;-1.90;99.90;;;;;;5079014;28;20255;-73
2021/01/17 00:48:49;;;;;;;29.57;19.90;;;-1.90;99.90;;;;;;5076388;28;20641;-74
2021/01/17 00:51:14;;;;;;;28.93;19.87;;;-1.90;99.90;;;;;;5080115;28;20187;-74
2021/01/17 00:53:40;;;;;;;29.03;20.13;;;-1.90;99.90;;;;;;5082575;28;20223;-74
2021/01/17 00:56:05;;;;;;;27.87;20.30;;;-1.90;99.90;;;;;;5080381;28;20186;-74
2021/01/17 00:58:31;;;;;;;29.53;20.57;;;-1.90;99.90;;;;;;5076167;28;20219;-74
2021/01/17 01:00:56;;;;;;;28.00;19.53;;;-1.90;99.90;;;;;;5079028;28;20276;-74
2021/01/17 01:03:22;;;;;;;28.93;21.40;;;-1.90;99.90;;;;;;5076382;28;21650;-74
2021/01/17 01:05:49;;;;;;;27.77;19.80;;;-1.90;99.90;;;;;;5088150;28;20664;-74
2021/01/17 01:08:14;;;;;;;29.03;20.53;;;-1.90;99.90;;;;;;5075140;28;20691;-74
2021/01/17 01:10:40;;;;;;;27.17;18.97;;;-1.90;99.90;;;;;;5078138;28;20237;-74
2021/01/17 01:13:05;;;;;;;29.70;21.23;;;-1.80;99.90;;;;;;5077722;28;20555;-73
2021/01/17 01:15:31;;;;;;;25.63;18.87;;;-1.80;99.90;;;;;;5076398;28;20231;-73
2021/01/17 01:17:58;;;;;;;28.37;20.97;;;-1.80;99.90;;;;;;5073080;28;20199;-75
2021/01/17 01:20:24;;;;;;;26.70;18.57;;;-1.80;99.90;;;;;;5085739;28;20556;-73
2021/01/17 01:22:50;;;;;;;28.17;20.33;;;-1.80;99.90;;;;;;5076997;28;20192;-74
2021/01/17 01:25:15;;;;;;;25.40;18.80;;;-1.90;99.90;;;;;;5077548;28;20269;-74
2021/01/17 01:27:46;;;;;;;25.93;19.20;;;-1.80;99.90;;;;;;5079025;28;20206;-74
2021/01/17 01:30:13;;;;;;;29.03;20.67;;;-1.90;99.90;;;;;;5080227;28;20610;-74
2021/01/17 01:32:38;;;;;;;27.00;19.30;;;-1.90;99.90;;;;;;5082154;28;20191;-73
2021/01/17 01:35:04;;;;;;;26.63;18.07;;;-1.90;99.90;;;;;;5073673;28;20207;-74
2021/01/17 01:37:34;;;;;;;26.70;19.20;;;-1.80;99.90;;;;;;5083216;28;20322;-75
2021/01/17 01:39:59;;;;;;;26.47;18.37;;;-1.80;99.90;;;;;;5086488;28;20172;-75
2021/01/17 01:42:25;;;;;;;26.60;19.07;;;-1.80;99.90;;;;;;5077908;28;20181;-75
2021/01/17 01:44:50;;;;;;;26.50;18.93;;;-1.80;99.90;;;;;;5089158;28;20267;-74
2021/01/17 01:47:27;;;;;;;27.43;19.60;;;-1.90;99.90;;;;;;5087306;28;20476;-75
2021/01/17 01:49:53;;;;;;;27.67;20.13;;;-1.80;99.90;;;;;;5079505;28;20249;-75
2021/01/17 01:52:19;;;;;;;29.70;20.40;;;-1.80;99.90;;;;;;5085437;28;20289;-74
2021/01/17 01:54:45;;;;;;;26.33;18.87;;;-1.80;99.90;;;;;;5077621;28;20185;-75
2021/01/17 01:57:11;;;;;;;30.73;21.30;;;-1.80;99.90;;;;;;5074520;28;20237;-74
2021/01/17 01:59:37;;;;;;;28.30;20.30;;;-1.80;99.90;;;;;;5079470;28;20202;-74
2021/01/17 02:02:08;;;;;;;28.10;20.47;;;-1.80;99.90;;;;;;5081504;28;20192;-74
2021/01/17 02:04:38;;;;;;;28.17;19.90;;;-1.80;99.90;;;;;;5072980;28;20283;-74
2021/01/17 02:07:41;;;;;;;26.27;19.47;;;-1.80;99.90;;;;;;5081311;28;20212;-74
2021/01/17 02:10:07;;;;;;;29.23;20.83;;;-1.80;99.90;;;;;;5078583;28;20188;-76
2021/01/17 02:13:04;;;;;;;30.73;21.47;;;-1.80;99.90;;;;;;5083509;28;20194;-74
2021/01/17 02:15:33;;;;;;;30.10;21.83;;;-1.90;99.90;;;;;;5076321;28;20269;-74
2021/01/17 02:18:04;;;;;;;31.40;20.43;;;-1.90;99.90;;;;;;5079591;28;20255;-75
2021/01/17 02:20:32;;;;;;;30.27;20.53;;;-1.80;99.90;;;;;;5078651;28;20281;-75
2021/01/17 02:23:01;;;;;;;28.73;20.07;;;-1.80;99.90;;;;;;5083607;28;20184;-75
2021/01/17 02:25:35;;;;;;;31.50;22.00;;;-1.80;99.90;;;;;;5083770;28;20265;-75
2021/01/17 02:28:03;;;;;;;31.90;20.83;;;-1.80;99.90;;;;;;5087266;28;20230;-74
2021/01/17 02:30:33;;;;;;;31.73;22.27;;;-1.80;99.90;;;;;;5085233;28;20203;-74
2021/01/17 02:33:03;;;;;;;27.57;20.27;;;-1.80;99.90;;;;;;5082205;28;20267;-74
2021/01/17 02:35:32;;;;;;;30.37;21.13;;;-1.80;99.90;;;;;;5085141;28;20192;-74
2021/01/17 02:38:26;;;;;;;30.20;21.43;;;-1.80;99.90;;;;;;5082612;28;20287;-76
2021/01/17 02:41:13;;;;;;;28.87;21.23;;;-1.70;99.90;;;;;;5081200;28;20201;-74
2021/01/17 02:43:41;;;;;;;28.10;20.00;;;-1.70;99.90;;;;;;5099817;28;20190;-75
2021/01/17 02:46:07;;;;;;;27.87;19.97;;;-1.70;99.90;;;;;;5089282;28;20560;-74
2021/01/17 02:48:32;;;;;;;27.33;19.80;;;-1.70;99.90;;;;;;5073127;28;20195;-74
2021/01/17 02:50:58;;;;;;;27.97;20.60;;;-1.70;99.90;;;;;;5082671;28;20201;-73
2021/01/17 02:53:48;;;;;;;29.37;20.57;;;-1.70;99.90;;;;;;5077123;28;20182;-74
2021/01/17 02:56:18;;;;;;;32.10;20.60;;;-1.80;99.90;;;;;;5072291;28;20661;-74
2021/01/17 02:58:48;;;;;;;33.10;22.57;;;-1.80;99.90;;;;;;5084833;28;20216;-75
2021/01/17 03:01:19;;;;;;;30.30;21.20;;;-1.80;99.90;;;;;;5076164;28;20668;-74
2021/01/17 03:03:47;;;;;;;29.97;21.47;;;-1.80;99.90;;;;;;5076319;28;20206;-75
2021/01/17 03:06:14;;;;;;;31.93;21.60;;;-1.80;99.90;;;;;;5086088;28;20178;-74
2021/01/17 03:08:40;;;;;;;35.27;23.13;;;-1.90;99.90;;;;;;5079940;28;20189;-75
2021/01/17 03:11:06;;;;;;;30.87;22.13;;;-1.80;99.90;;;;;;5086473;28;20188;-75
2021/01/17 03:13:36;;;;;;;31.97;21.80;;;-1.80;99.90;;;;;;5079555;28;20190;-74
2021/01/17 03:16:04;;;;;;;32.43;22.27;;;-1.80;99.90;;;;;;5082109;28;20227;-75
2021/01/17 03:18:30;;;;;;;30.37;21.93;;;-1.80;99.90;;;;;;5079119;28;20216;-75
2021/01/17 03:20:55;;;;;;;33.90;22.93;;;-1.70;99.90;;;;;;5085673;28;20217;-75
2021/01/17 03:23:21;;;;;;;31.30;22.33;;;-1.70;99.90;;;;;;5084596;28;20186;-75
2021/01/17 03:25:46;;;;;;;34.33;22.70;;;-1.70;99.90;;;;;;5081416;28;20214;-74
2021/01/17 03:28:12;;;;;;;34.53;23.10;;;-1.70;99.90;;;;;;5082987;28;20632;-75
2021/01/17 03:30:38;;;;;;;35.83;24.30;;;-1.70;99.90;;;;;;5085748;28;20694;-75
2021/01/17 03:33:04;;;;;;;33.57;23.70;;;-1.70;99.90;;;;;;5079086;28;20746;-74
2021/01/17 03:35:31;;;;;;;32.13;22.67;;;-1.70;99.90;;;;;;5085356;28;20175;-74
2021/01/17 03:37:56;;;;;;;31.93;22.47;;;-1.80;99.90;;;;;;5080368;28;20206;-75
2021/01/17 03:40:22;;;;;;;33.13;22.67;;;-1.70;99.90;;;;;;5083841;28;20185;-74
2021/01/17 03:42:48;;;;;;;32.90;22.60;;;-1.70;99.90;;;;;;5086760;28;20406;-75
2021/01/17 03:45:13;;;;;;;30.37;22.27;;;-1.70;99.90;;;;;;5079161;28;20644;-77
2021/01/17 03:47:39;;;;;;;33.90;23.70;;;-1.80;99.90;;;;;;5082643;28;20226;-75
2021/01/17 03:50:05;;;;;;;33.97;23.37;;;-1.70;99.90;;;;;;5084142;28;20272;-74
2021/01/17 03:52:30;;;;;;;37.53;24.80;;;-1.70;99.90;;;;;;5087845;28;22048;-74
2021/01/17 03:54:56;;;;;;;32.07;22.23;;;-1.70;99.90;;;;;;5086239;28;20184;-75
2021/01/17 03:57:22;;;;;;;31.83;22.73;;;-1.70;99.90;;;;;;5080110;28;20732;-74
2021/01/17 03:59:47;;;;;;;32.10;22.33;;;-1.70;99.90;;;;;;5087067;28;20226;-75
2021/01/17 04:02:13;;;;;;;31.53;22.67;;;-1.70;99.90;;;;;;5081195;28;20188;-74
2021/01/17 04:04:38;;;;;;;35.40;24.23;;;-1.70;99.90;;;;;;5085858;28;20195;-75
2021/01/17 04:07:04;;;;;;;33.93;23.77;;;-1.80;99.90;;;;;;5087562;28;20307;-74
2021/01/17 04:09:30;;;;;;;36.33;24.67;;;-1.70;99.90;;;;;;5079117;28;20185;-74
2021/01/17 04:11:55;;;;;;;37.07;23.50;;;-1.80;99.90;;;;;;5083741;28;20591;-74
2021/01/17 04:14:21;;;;;;;30.13;22.07;;;-1.80;99.90;;;;;;5088453;28;20186;-74
2021/01/17 04:16:51;;;;;;;33.07;23.10;;;-1.70;99.90;;;;;;5084940;28;20196;-74
2021/01/17 04:19:17;;;;;;;29.93;21.47;;;-1.80;99.90;;;;;;5080187;28;20282;-75
2021/01/17 04:21:43;;;;;;;32.70;22.57;;;-1.80;99.90;;;;;;5080605;28;20244;-75
2021/01/17 04:24:08;;;;;;;31.33;22.23;;;-1.70;99.90;;;;;;5082604;28;20186;-74
2021/01/17 04:26:34;;;;;;;38.40;25.03;;;-1.80;99.90;;;;;;5089268;28;20301;-76
2021/01/17 04:29:00;;;;;;;36.57;24.20;;;-1.80;99.90;;;;;;5089274;28;20668;-76
2021/01/17 04:31:25;;;;;;;34.13;23.93;;;-1.80;99.90;;;;;;5086730;28;20881;-74
2021/01/17 04:33:51;;;;;;;34.60;24.43;;;-1.80;99.90;;;;;;5084231;28;20182;-74
2021/01/17 04:36:16;;;;;;;37.50;24.90;;;-1.80;99.90;;;;;;5087830;28;20673;-75
2021/01/17 04:38:42;;;;;;;37.47;25.03;;;-1.80;99.90;;;;;;5080527;28;20234;-75
2021/01/17 04:41:13;;;;;;;34.83;24.67;;;-1.80;99.90;;;;;;5087604;28;20181;-75
2021/01/17 04:43:53;;;;;;;34.30;24.67;;;-1.80;99.90;;;;;;5082721;28;20202;-75
2021/01/17 04:46:20;;;;;;;37.13;25.47;;;-1.70;99.90;;;;;;5083723;28;20199;-75
2021/01/17 04:48:48;;;;;;;34.93;24.53;;;-1.80;99.90;;;;;;5076947;28;20238;-75
2021/01/17 04:51:16;;;;;;;34.43;23.37;;;-1.70;99.90;;;;;;5074640;28;20592;-76
2021/01/17 04:53:42;;;;;;;33.50;23.83;;;-1.70;99.90;;;;;;5082852;28;20191;-75
2021/01/17 04:56:20;;;;;;;34.57;25.13;;;-1.70;99.90;;;;;;5077359;28;20680;-75
2021/01/17 04:59:15;;;;;;;33.93;23.53;;;-1.70;99.90;;;;;;5072883;28;20593;-74
2021/01/17 05:01:46;;;;;;;30.43;22.40;;;-1.70;99.90;;;;;;5073944;28;20196;-76
2021/01/17 05:04:50;;;;;;;35.97;23.40;;;-1.70;99.90;;;;;;5075208;28;20300;-74
2021/01/17 05:07:23;;;;;;;31.80;22.53;;;-1.70;99.90;;;;;;5077999;28;20203;-74
2021/01/17 05:10:27;;;;;;;33.07;23.70;;;-1.80;99.90;;;;;;5084349;28;20285;-76
2021/01/17 05:13:00;;;;;;;33.43;22.60;;;-1.80;99.90;;;;;;5080008;28;20175;-75
2021/01/17 05:15:25;;;;;;;35.20;24.30;;;-1.80;99.90;;;;;;5085138;28;20174;-75
2021/01/17 05:17:55;;;;;;;31.13;21.97;;;-1.80;99.90;;;;;;5079775;28;20250;-75
2021/01/17 05:20:22;;;;;;;35.43;23.67;;;-1.80;99.90;;;;;;5080872;28;20280;-75
2021/01/17 05:22:48;;;;;;;31.07;21.83;;;-1.70;99.90;;;;;;5082641;28;20181;-75
2021/01/17 05:25:17;;;;;;;33.37;23.23;;;-1.70;99.90;;;;;;5079179;28;20586;-75
2021/01/17 05:27:49;;;;;;;33.60;23.33;;;-1.70;99.90;;;;;;5081282;28;20230;-75
2021/01/17 05:30:15;;;;;;;35.00;23.43;;;-1.70;99.90;;;;;;5080243;28;20232;-75
2021/01/17 05:32:40;;;;;;;31.90;21.90;;;-1.70;99.90;;;;;;5082456;28;20661;-76
2021/01/17 05:35:06;;;;;;;30.93;22.20;;;-1.70;99.90;;;;;;5080277;28;20178;-76
2021/01/17 05:37:32;;;;;;;30.10;21.07;;;-1.70;99.90;;;;;;5083608;28;20217;-75
2021/01/17 05:39:59;;;;;;;30.33;21.77;;;-1.70;99.90;;;;;;5075972;28;20188;-76
2021/01/17 05:42:33;;;;;;;34.93;23.63;;;-1.70;99.90;;;;;;5077357;28;20180;-75
2021/01/17 05:45:19;;;;;;;32.20;22.37;;;-1.70;99.90;;;;;;5082946;28;20184;-75
2021/01/17 05:47:51;;;;;;;31.20;22.00;;;-1.70;99.90;;;;;;5078271;28;20204;-75
2021/01/17 05:50:16;;;;;;;33.13;23.70;;;-1.70;99.90;;;;;;5085405;28;20196;-75
2021/01/17 05:52:42;;;;;;;36.73;24.30;;;-1.70;99.90;;;;;;5078504;28;20190;-75
2021/01/17 05:55:13;;;;;;;34.37;24.87;;;-1.60;99.90;;;;;;5078953;28;20181;-75
2021/01/17 05:57:39;;;;;;;32.17;23.03;;;-1.60;99.90;;;;;;5077742;28;20208;-76
2021/01/17 06:00:05;;;;;;;32.77;23.57;;;-1.60;99.90;;;;;;5083383;28;20192;-75
2021/01/17 06:02:31;;;;;;;32.57;22.87;;;-1.60;99.90;;;;;;5081795;28;20205;-75
2021/01/17 06:05:02;;;;;;;32.30;22.77;;;-1.60;99.90;;;;;;5079173;28;20183;-75
2021/01/17 06:07:30;;;;;;;33.77;22.73;;;-1.60;99.90;;;;;;5078506;28;20211;-75
2021/01/17 06:10:04;;;;;;;33.77;22.43;;;-1.60;99.90;;;;;;5074974;28;20560;-75
2021/01/17 06:12:32;;;;;;;33.90;23.20;;;-1.50;99.90;;;;;;5080774;28;20635;-75
2021/01/17 06:15:07;;;;;;;34.63;23.97;;;-1.50;99.90;;;;;;5078375;28;20229;-75
2021/01/17 06:17:35;;;;;;;30.10;21.67;;;-1.40;99.90;;;;;;5073772;28;20207;-73
2021/01/17 06:20:03;;;;;;;35.07;25.13;;;-1.40;99.90;;;;;;5073441;28;20712;-76
2021/01/17 06:22:30;;;;;;;44.57;33.37;;;-1.40;99.90;;;;;;5089850;28;20257;-75
2021/01/17 06:25:06;;;;;;;39.60;26.87;;;-1.40;99.90;;;;;;5095325;28;20432;-74
2021/01/17 06:27:32;;;;;;;43.27;28.53;;;-1.40;99.90;;;;;;5097402;28;20266;-75
2021/01/17 06:29:59;;;;;;;44.37;29.90;;;-1.40;99.90;;;;;;5104976;28;20204;-74
2021/01/17 06:32:29;;;;;;;47.87;33.40;;;-1.40;99.90;;;;;;5096295;28;20177;-74
2021/01/17 06:34:56;;;;;;;39.17;27.17;;;-1.40;99.90;;;;;;5095946;28;20224;-75
2021/01/17 06:37:24;;;;;;;41.23;27.57;;;-1.40;99.90;;;;;;5093204;28;20211;-74
2021/01/17 06:39:55;;;;;;;41.47;27.57;;;-1.40;99.90;;;;;;5101536;28;20174;-74
2021/01/17 06:42:22;;;;;;;42.90;29.57;;;-1.40;99.90;;;;;;5090226;28;20193;-75
2021/01/17 06:44:50;;;;;;;37.57;25.97;;;-1.30;99.90;;;;;;5097373;28;20180;-74
2021/01/17 06:47:20;;;;;;;40.63;26.33;;;-1.30;99.90;;;;;;5097988;28;20215;-75
2021/01/17 06:49:46;;;;;;;39.80;28.17;;;-1.30;99.90;;;;;;5100412;28;20182;-74
2021/01/17 06:52:14;;;;;;;41.27;27.27;;;-1.40;99.90;;;;;;5095950;28;20191;-75
2021/01/17 06:54:51;;;;;;;38.93;27.13;;;-1.40;99.90;;;;;;5096805;28;20179;-74
2021/01/17 06:57:18;;;;;;;37.87;25.90;;;-1.40;99.90;;;;;;5096414;28;20197;-74
2021/01/17 06:59:46;;;;;;;36.50;26.20;;;-1.40;99.90;;;;;;5102027;28;20175;-74
2021/01/17 07:02:17;;;;;;;45.60;33.87;;;-1.30;99.90;;;;;;5093445;28;20261;-73
2021/01/17 07:04:51;;;;;;;49.83;38.97;;;-1.30;99.90;;;;;;5072966;28;20651;-73
2021/01/17 07:07:29;;;;;;;43.30;32.13;;;-1.30;99.90;;;;;;5082748;28;20241;-75
2021/01/17 07:10:03;;;;;;;40.17;26.30;;;-1.30;99.90;;;;;;5078874;28;20675;-74
2021/01/17 07:12:38;;;;;;;37.27;26.07;;;-1.30;99.90;;;;;;5072393;28;20188;-76
2021/01/17 07:15:07;;;;;;;36.97;25.77;;;-1.30;99.90;;;;;;5073844;28;20714;-75
2021/01/17 07:17:36;;;;;;;36.53;25.27;;;-1.30;99.90;;;;;;5081085;28;20205;-75
2021/01/17 07:20:07;;;;;;;39.17;25.13;;;-1.30;99.90;;;;;;5099373;28;20174;-75
2021/01/17 07:22:34;;;;;;;37.90;25.50;;;-1.30;99.90;;;;;;5092059;28;20174;-76
2021/01/17 07:25:11;;;;;;;37.73;25.67;;;-1.20;99.90;;;;;;5080029;28;20190;-75
2021/01/17 07:28:13;;;;;;;35.87;25.20;;;-1.20;99.90;;;;;;5077330;28;20199;-75
2021/01/17 07:30:38;;;;;;;39.47;26.00;;;-1.20;99.90;;;;;;5059839;28;20227;-75
2021/01/17 07:33:06;;;;;;;36.67;26.23;;;-1.10;99.90;;;;;;5066521;28;20195;-75
2021/01/17 07:35:40;;;;;;;34.43;24.40;;;-1.10;99.90;;;;;;5060642;28;20197;-75
2021/01/17 07:38:23;;;;;;;38.53;26.50;;;-1.10;99.90;;;;;;5060300;28;20209;-75
2021/01/17 07:41:00;;;;;;;38.03;26.30;;;-1.10;99.90;;;;;;5066549;28;20696;-75
2021/01/17 07:43:28;;;;;;;41.80;28.10;;;-1.10;99.90;;;;;;5069941;28;20668;-76
2021/01/17 07:45:55;;;;;;;38.73;26.37;;;-1.10;99.90;;;;;;5064554;28;20248;-77
2021/01/17 07:48:22;;;;;;;39.40;26.70;;;-1.00;99.90;;;;;;5065785;28;20240;-76
2021/01/17 07:50:50;;;;;;;39.40;27.90;;;-1.00;99.90;;;;;;5057945;28;20277;-77
2021/01/17 07:53:39;;;;;;;42.47;27.57;;;-0.90;99.90;;;;;;5057448;28;20206;-75
2021/01/17 07:56:24;;;;;;;37.03;25.83;;;-0.80;99.90;;;;;;5062841;28;20604;-76
2021/01/17 07:58:52;;;;;;;35.67;26.13;;;-0.80;99.90;;;;;;5058763;28;20240;-75
2021/01/17 08:01:35;;;;;;;42.47;27.37;;;-0.70;99.90;;;;;;5064111;28;20225;-75
2021/01/17 08:04:03;;;;;;;39.00;28.37;;;-0.60;99.90;;;;;;5063964;28;20511;-75
2021/01/17 08:06:35;;;;;;;37.50;26.97;;;-0.60;99.90;;;;;;5072963;28;20279;-77
2021/01/17 08:09:08;;;;;;;39.50;27.60;;;-0.50;99.90;;;;;;5075400;28;20186;-76
2021/01/17 08:11:49;;;;;;;42.70;29.20;;;-0.40;99.90;;;;;;5083793;28;20185;-76
2021/01/17 08:14:28;;;;;;;40.80;28.43;;;-0.30;99.90;;;;;;5090136;28;20189;-77
2021/01/17 08:17:13;;;;;;;37.33;26.63;;;-0.20;99.90;;;;;;5078479;28;20207;-79
2021/01/17 08:19:40;;;;;;;39.47;28.07;;;-0.10;99.90;;;;;;5087985;28;20356;-78
2021/01/17 08:22:17;;;;;;;41.50;29.40;;;0.00;99.90;;;;;;5102540;28;20198;-79
2021/01/17 08:24:57;;;;;;;41.87;29.73;;;0.00;99.90;;;;;;5091657;28;20213;-76
2021/01/17 08:27:30;;;;;;;42.83;30.30;;;0.10;99.90;;;;;;5080165;28;20279;-77
2021/01/17 08:30:07;;;;;;;46.13;31.97;;;0.30;99.90;;;;;;5083156;28;20184;-76
2021/01/17 08:32:36;;;;;;;45.43;29.70;;;0.40;99.90;;;;;;5075635;28;20543;-77
2021/01/17 08:35:18;;;;;;;44.17;31.13;;;0.40;99.90;;;;;;5080704;28;20197;-77
2021/01/17 08:37:44;;;;;;;43.00;31.43;;;0.50;99.90;;;;;;5079238;28;20290;-77
2021/01/17 08:40:31;;;;;;;41.07;31.13;;;0.50;99.90;;;;;;5078700;28;20170;-77
2021/01/17 08:43:00;;;;;;;46.10;32.67;;;0.60;99.90;;;;;;5078050;28;20197;-77
2021/01/17 08:45:26;;;;;;;47.60;32.67;;;0.60;99.90;;;;;;5080386;28;20171;-77
2021/01/17 08:47:54;;;;;;;46.53;32.70;;;0.60;99.70;;;;;;5080926;28;20197;-77
2021/01/17 08:50:36;;;;;;;38.13;28.87;;;0.70;99.90;;;;;;5088524;28;20243;-77
2021/01/17 08:53:21;;;;;;;41.67;29.63;;;0.80;99.30;;;;;;5090554;28;20228;-77
2021/01/17 08:55:48;;;;;;;38.17;27.43;;;0.80;98.60;;;;;;5082984;28;20188;-77
2021/01/17 08:58:26;;;;;;;36.60;26.50;;;0.80;99.10;;;;;;5077793;28;20221;-78
2021/01/17 09:00:51;;;;;;;38.83;27.90;;;0.80;98.90;;;;;;5081834;28;20603;-77
2021/01/17 09:03:32;;;;;;;39.73;27.37;;;0.80;98.50;;;;;;5087172;28;20210;-77
2021/01/17 09:06:12;;;;;;;39.80;27.10;;;0.80;98.70;;;;;;5081357;28;20653;-76
2021/01/17 09:09:00;;;;;;;36.67;27.27;;;0.90;98.90;;;;;;5081909;28;20238;-76
2021/01/17 09:11:28;;;;;;;39.23;28.07;;;0.90;98.80;;;;;;5083442;28;20183;-78
2021/01/17 09:14:22;;;;;;;38.60;28.03;;;1.00;99.20;;;;;;5081558;28;20218;-77
2021/01/17 09:16:52;;;;;;;38.33;26.90;;;1.00;99.10;;;;;;5085084;28;20696;-77
2021/01/17 09:19:20;;;;;;;37.47;28.07;;;1.00;98.60;;;;;;5083465;28;20684;-78
2021/01/17 09:21:50;;;;;;;39.73;30.13;;;1.10;99.30;;;;;;5082961;28;20198;-77
2021/01/17 09:24:29;;;;;;;44.63;33.43;;;1.30;99.20;;;;;;5082066;28;20261;-76
2021/01/17 09:26:57;;;;;;;46.30;32.63;;;1.30;99.00;;;;;;5087069;28;20567;-76
2021/01/17 09:29:33;;;;;;;44.07;33.13;;;1.40;98.70;;;;;;5095014;28;20171;-76
2021/01/17 09:32:11;;;;;;;44.47;32.90;;;1.50;98.40;;;;;;5085289;28;20276;-75
2021/01/17 09:34:48;;;;;;;50.40;36.00;;;1.60;98.30;;;;;;5076724;28;20620;-75
2021/01/17 09:37:16;;;;;;;41.20;30.80;;;1.70;98.30;;;;;;5077502;28;20635;-76
2021/01/17 09:39:46;;;;;;;49.63;38.43;;;1.80;97.60;;;;;;5076357;28;20202;-75
2021/01/17 09:42:14;;;;;;;36.50;28.53;;;1.90;97.80;;;;;;5077371;28;20186;-76
2021/01/17 09:44:42;;;;;;;38.90;31.20;;;1.90;97.60;;;;;;5077674;28;20707;-75
2021/01/17 09:47:21;;;;;;;41.47;32.87;;;1.90;97.60;;;;;;5087392;28;20224;-76
2021/01/17 09:49:48;;;;;;;45.67;34.07;;;1.90;97.10;;;;;;5074283;28;20213;-76
2021/01/17 09:52:15;;;;;;;47.67;34.67;;;2.00;96.90;;;;;;5072941;28;20337;-75
2021/01/17 09:54:41;;;;;;;45.83;33.70;;;2.00;96.70;;;;;;5076170;28;20197;-75
2021/01/17 09:57:20;;;;;;;44.90;34.67;;;2.00;96.70;;;;;;5079424;28;20197;-76
2021/01/17 09:59:47;;;;;;;40.00;29.47;;;2.10;96.30;;;;;;5072594;28;20192;-76
2021/01/17 10:02:16;;;;;;;35.07;28.40;;;2.00;95.90;;;;;;5076526;28;20184;-77
2021/01/17 10:04:41;;;;;;;38.57;29.07;;;1.90;96.20;;;;;;5082815;28;20182;-75
2021/01/17 10:07:13;;;;;;;39.07;29.77;;;1.90;96.30;;;;;;5078758;28;20791;-76
2021/01/17 10:09:39;;;;;;;39.80;29.73;;;1.80;96.40;;;;;;5077845;28;20192;-77
2021/01/17 10:12:05;;;;;;;39.47;31.20;;;1.90;97.10;;;;;;5075724;28;20183;-76
2021/01/17 10:14:33;;;;;;;43.73;31.00;;;2.00;96.80;;;;;;5074272;28;20185;-76
2021/01/17 10:17:02;;;;;;;36.67;29.33;;;2.10;96.90;;;;;;5078874;28;20835;-75
2021/01/17 10:19:35;;;;;;;38.43;28.63;;;2.20;96.80;;;;;;5082231;28;20217;-77
2021/01/17 10:22:02;;;;;;;39.30;31.93;;;2.20;97.30;;;;;;5085450;28;20605;-78
2021/01/17 10:24:30;;;;;;;54.50;41.37;;;2.30;96.80;;;;;;5079059;28;20291;-78
2021/01/17 10:27:01;;;;;;;31.20;24.93;;;2.40;96.30;;;;;;5075677;28;20204;-78
2021/01/17 10:29:44;;;;;;;27.80;21.83;;;2.40;96.60;;;;;;5077451;28;20192;-75
2021/01/17 10:32:15;;;;;;;27.97;21.40;;;2.40;97.10;;;;;;5080802;28;20641;-77
2021/01/17 10:34:48;;;;;;;24.93;17.37;;;2.40;97.40;;;;;;5075554;28;20179;-76
2021/01/17 10:37:17;;;;;;;24.53;18.50;;;2.40;96.70;;;;;;5073684;28;20210;-76
2021/01/17 10:39:44;;;;;;;26.43;20.10;;;2.30;97.40;;;;;;5075345;28;20274;-75
2021/01/17 10:42:26;;;;;;;25.83;20.80;;;2.30;97.60;;;;;;5078536;28;20184;-76
2021/01/17 10:44:59;;;;;;;29.10;22.13;;;2.40;97.60;;;;;;5081185;28;20224;-75
2021/01/17 10:47:35;;;;;;;28.10;21.90;;;2.50;96.40;;;;;;5075394;28;20194;-76
2021/01/17 10:50:09;;;;;;;35.00;26.17;;;2.50;96.40;;;;;;5077650;28;20183;-77
2021/01/17 10:52:41;;;;;;;33.07;22.90;;;2.50;96.60;;;;;;5080598;28;20632;-75
2021/01/17 10:55:11;;;;;;;32.43;24.10;;;2.50;96.70;;;;;;5077438;28;20184;-74
2021/01/17 10:57:39;;;;;;;33.63;24.53;;;2.60;96.10;;;;;;5074872;28;20291;-75
2021/01/17 11:00:08;;;;;;;39.00;29.07;;;2.70;96.00;;;;;;5072509;28;20236;-74
2021/01/17 11:02:34;;;;;;;32.33;24.80;;;2.70;96.30;;;;;;5075624;28;20657;-76
2021/01/17 11:04:59;;;;;;;65.63;45.13;;;2.70;95.90;;;;;;5080354;28;20274;-76
2021/01/17 11:07:28;;;;;;;38.60;29.60;;;2.70;96.40;;;;;;5080197;28;20274;-76
2021/01/17 11:09:57;;;;;;;32.40;25.13;;;2.90;96.40;;;;;;5074657;28;20169;-75
2021/01/17 11:12:39;;;;;;;37.93;26.17;;;3.00;96.30;;;;;;5078612;28;20598;-75
2021/01/17 11:15:12;;;;;;;27.20;21.90;;;3.10;95.60;;;;;;5073790;28;20677;-75
2021/01/17 11:17:38;;;;;;;30.70;22.30;;;3.00;95.80;;;;;;5077550;28;20257;-75
2021/01/17 11:20:05;;;;;;;28.17;20.80;;;3.00;96.10;;;;;;5079171;28;20522;-76
2021/01/17 11:22:33;;;;;;;32.87;23.13;;;3.00;96.10;;;;;;5073920;28;20267;-73
2021/01/17 11:24:58;;;;;;;45.30;28.00;;;3.00;96.10;;;;;;5074078;28;20177;-75
2021/01/17 11:27:36;;;;;;;34.90;23.40;;;3.10;96.50;;;;;;5069892;28;20200;-74
2021/01/17 11:30:05;;;;;;;24.77;18.50;;;3.10;96.30;;;;;;5074938;28;20183;-75
2021/01/17 11:32:34;;;;;;;34.20;27.20;;;3.10;96.30;;;;;;5080169;28;20171;-75
2021/01/17 11:35:00;;;;;;;23.93;18.90;;;3.00;97.10;;;;;;5075362;28;20649;-75
2021/01/17 11:37:37;;;;;;;31.93;25.47;;;3.10;96.60;;;;;;5074171;28;20196;-75
2021/01/17 11:40:09;;;;;;;59.27;35.50;;;3.10;96.20;;;;;;5080763;28;20264;-75
2021/01/17 11:42:35;;;;;;;52.63;31.80;;;3.30;97.20;;;;;;5072830;28;20667;-74
2021/01/17 11:45:17;;;;;;;39.77;29.03;;;3.40;96.50;;;;;;5077049;28;20175;-74
2021/01/17 11:47:44;;;;;;;67.17;41.03;;;3.40;96.40;;;;;;5076556;28;20280;-74
2021/01/17 11:50:19;;;;;;;32.47;27.63;;;3.50;96.50;;;;;;5073936;28;20680;-75
2021/01/17 11:53:02;;;;;;;29.73;21.80;;;3.40;96.10;;;;;;5077235;28;20191;-74
2021/01/17 11:55:29;;;;;;;25.53;21.63;;;3.30;95.60;;;;;;5084143;28;20181;-75
2021/01/17 11:58:07;;;;;;;27.77;22.03;;;3.30;95.80;;;;;;5082292;28;20211;-76
2021/01/17 12:00:52;;;;;;;23.93;19.03;;;3.20;96.80;;;;;;5074564;28;20171;-76
2021/01/17 12:03:58;;;;;;;23.57;19.73;;;3.20;96.50;;;;;;5079559;28;20696;-74
2021/01/17 12:06:23;;;;;;;27.13;19.73;;;3.20;96.70;;;;;;5058863;28;20217;-73
2021/01/17 12:08:50;;;;;;;31.83;24.83;;;3.10;97.10;;;;;;5061532;28;20544;-75
2021/01/17 12:11:37;;;;;;;32.00;25.60;;;3.10;97.50;;;;;;5068350;28;20228;-75
2021/01/17 12:14:21;;;;;;;21.90;16.07;;;3.20;98.00;;;;;;5066839;28;20203;-74
2021/01/17 12:16:50;;;;;;;15.00;12.40;;;3.20;97.40;;;;;;5066496;28;20211;-74
2021/01/17 12:19:16;;;;;;;14.80;11.40;;;3.10;97.20;;;;;;5066531;28;20725;-74
2021/01/17 12:21:44;;;;;;;15.63;13.17;;;3.30;97.20;;;;;;5066520;28;20264;-75
2021/01/17 12:24:14;;;;;;;16.07;12.93;;;3.30;97.50;;;;;;5069218;28;20199;-75
2021/01/17 12:26:41;;;;;;;17.57;14.23;;;3.30;97.30;;;;;;5061248;28;20223;-73
2021/01/17 12:29:07;;;;;;;16.70;12.77;;;3.40;96.60;;;;;;5037773;28;20231;-75
2021/01/17 12:31:33;;;;;;;19.10;14.33;;;3.20;97.40;;;;;;5062482;28;20190;-74
2021/01/17 12:34:00;;;;;;;32.27;16.70;;;3.20;98.20;;;;;;5045582;28;20190;-74
2021/01/17 12:36:28;;;;;;;25.03;17.53;;;3.30;98.20;;;;;;5060993;28;20246;-74
2021/01/17 12:38:55;;;;;;;20.83;16.57;;;3.40;97.90;;;;;;5051480;28;20207;-74
2021/01/17 12:41:24;;;;;;;16.70;12.37;;;3.40;97.70;;;;;;5067753;28;20200;-74
2021/01/17 12:43:50;;;;;;;18.77;13.43;;;3.40;97.30;;;;;;5086879;28;20183;-74
2021/01/17 12:46:17;;;;;;;22.73;13.17;;;3.40;97.20;;;;;;5083609;28;20457;-74